This is the latest recevied weather packets stored in our database for station/object KE9ADS. If no packets are shown the sender has not sent any weather packets the latest 10 day(s).
| Time | Temp. | Humidity | Pressure | Rain* | Wind** | Luminosity | Snow |
|---|---|---|---|---|---|---|---|
| 1776986923 | 26.67° C | 50% | 1005.8 hPa | 0 mm | - | 31 W/m² | - |
| 1776986321 | 26.67° C | 50% | 1005.9 hPa | 0 mm | - | 20 W/m² | - |
| 1776985721 | 26.67° C | 49% | 1005.9 hPa | 0 mm | - | 39 W/m² | - |
| 1776985119 | 26.67° C | 49% | 1006.3 hPa | 0 mm | - | 52 W/m² | - |
| 1776984517 | 26.67° C | 49% | 1006.1 hPa | 0 mm | - | 52 W/m² | - |
| 1776983914 | 27.22° C | 49% | 1006.1 hPa | 0 mm | - | 78 W/m² | - |
| 1776983312 | 27.22° C | 49% | 1006.1 hPa | 0 mm | - | 93 W/m² | - |
| 1776982713 | 27.22° C | 50% | 1006.2 hPa | 0 mm | - | 158 W/m² | - |
| 1776982108 | 27.22° C | 50% | 1006.4 hPa | 0 mm | - | 97 W/m² | - |
| 1776981505 | 27.22° C | 50% | 1006.5 hPa | 0 mm | - | 227 W/m² | - |
| 1776980901 | 27.22° C | 51% | 1006.6 hPa | 0 mm | - | 131 W/m² | - |
| 1776980301 | 27.22° C | 50% | 1006.8 hPa | 0 mm | - | 121 W/m² | - |
| 1776979699 | 27.22° C | 51% | 1006.8 hPa | 0 mm | - | 265 W/m² | - |
| 1776979098 | 27.22° C | 51% | 1007 hPa | 0 mm | - | 128 W/m² | - |
| 1776978498 | 27.22° C | 50% | 1007.3 hPa | 0 mm | - | 135 W/m² | - |
| 1776977893 | 27.22° C | 50% | 1007.3 hPa | 0 mm | - | 472 W/m² | - |
| 1776977291 | 27.22° C | 51% | 1007.7 hPa | 0 mm | - | 103 W/m² | - |
| 1776976689 | 27.78° C | 50% | 1007.6 hPa | 0 mm | - | 400 W/m² | - |
| 1776976086 | 27.22° C | 51% | 1008 hPa | 0 mm | - | 724 W/m² | - |
| 1776975486 | 27.22° C | 52% | 1008.3 hPa | 0 mm | - | 189 W/m² | - |
| 1776974885 | 28.33° C | 51% | 1008.3 hPa | 0 mm | - | 698 W/m² | - |
| 1776974285 | 27.78° C | 52% | 1008.7 hPa | 0 mm | - | 159 W/m² | - |
| 1776973680 | 28.33° C | 50% | 1008.6 hPa | 0 mm | - | 731 W/m² | - |
| 1776973074 | 27.22° C | 50% | 1008.9 hPa | 0 mm | - | 691 W/m² | - |
| 1776972471 | 27.22° C | 52% | 1009.2 hPa | 0 mm | - | 250 W/m² | - |
* Rain latest hour (hover to see other rain measurements)
** Current wind speed in m/s (hover to see current wind gust speed)